Moriarty, New Mexico
Current Conditions -  °F | °C
As of 6:15 PM on Saturday 25 Oct 2014 (Local Time) from K0E0 Reporting Station
Clear Clear  
Wind Chill: 67°   Ceiling: Unl
Heat Index: 67°   Visibility: 10mi
Dew Point: 28°   Wind: 5mph
Humidity: 23%   Direction: 250°WSW
Pressure: 30.24"   Gusts: NA
Location:  34.99°N, 106.05°W
Report Text: K0E0 260015Z AUTO 25004KT 10SM CLR 20/M02 A3024 RMK AO2 T01951024
Loading
Personal Weather Stations






























Interactive Weather Map
Tropical Storm Tracking
New forecast layout! Learn more

10-Day Weather Forecast

Advertisements
Track Severe Weather on mobile